Terminal Aerodrome Forecast
Issued by NWS Duluth, MN

Home | Current Version | Previous Version | Text Only | Print | Product List | Glossary On
Versions: 1 2 3 4 5 6 7 8 9 10 11 12 13 14 15 16 17 18 19 20
285
FTUS43 KDLH 191751
TAFDLH
TAF
KDLH 191751Z 1918/2018 12008KT P6SM SCT220
     FM200300 13011KT P6SM SCT035 BKN110 WS020/18040KT
     FM201600 14014G20KT 6SM -SHRA SCT020 BKN035 OVC080=

USA.gov is the U.S. government's official web portal to all federal, state and local government web resources and services.